createdAt,value
2023-05-14T00:00:05.981Z,8.22
2023-05-14T00:01:05.995Z,7.88
2023-05-14T00:02:06.081Z,7.66
2023-05-14T00:03:06.247Z,7.50
2023-05-14T00:04:06.151Z,7.40
2023-05-14T00:05:06.122Z,7.33
2023-05-14T00:06:06.144Z,7.31
2023-05-14T00:07:06.168Z,7.13
2023-05-14T00:08:06.211Z,6.89
2023-05-14T00:09:06.261Z,6.34
2023-05-14T00:10:06.242Z,6.21
2023-05-14T00:11:06.267Z,6.29
2023-05-14T00:12:06.283Z,6.28
2023-05-14T00:13:06.305Z,6.43
2023-05-14T00:14:06.354Z,6.30
2023-05-14T00:15:06.384Z,6.17
2023-05-14T00:16:06.452Z,6.26
2023-05-14T00:17:06.418Z,6.17
2023-05-14T00:18:06.470Z,6.27
2023-05-14T00:19:06.590Z,6.31
2023-05-14T00:20:06.511Z,6.32
2023-05-14T00:21:06.523Z,6.44
2023-05-14T00:22:06.570Z,6.59
2023-05-14T00:23:06.614Z,6.75
2023-05-14T00:24:06.656Z,6.74
2023-05-14T00:25:06.637Z,6.61
2023-05-14T00:26:06.664Z,6.58
2023-05-14T00:27:06.706Z,6.71
2023-05-14T00:28:06.743Z,6.89
2023-05-14T00:29:06.772Z,7.06
2023-05-14T00:30:06.838Z,6.95
2023-05-14T00:31:06.840Z,6.89
2023-05-14T00:32:06.855Z,6.85
2023-05-14T00:33:06.941Z,6.70
2023-05-14T00:34:06.887Z,6.48
2023-05-14T00:35:06.914Z,6.51
2023-05-14T00:36:06.960Z,6.26
2023-05-14T00:37:06.988Z,6.37
2023-05-14T00:38:07.008Z,6.06
2023-05-14T00:39:07.043Z,5.91
2023-05-14T00:40:07.072Z,5.70
2023-05-14T00:41:07.106Z,5.71
2023-05-14T00:42:07.126Z,5.43
2023-05-14T00:43:07.145Z,5.42
2023-05-14T00:44:07.171Z,5.36
2023-05-14T00:45:07.189Z,5.45
2023-05-14T00:46:07.251Z,5.53
2023-05-14T00:47:07.341Z,5.65
2023-05-14T00:48:07.340Z,5.56
2023-05-14T00:49:07.301Z,5.65
2023-05-14T00:50:07.349Z,5.74
2023-05-14T00:51:07.376Z,5.97
2023-05-14T00:52:07.405Z,5.79
2023-05-14T00:53:07.425Z,6.12
2023-05-14T00:54:07.451Z,5.96
2023-05-14T00:55:07.533Z,5.93
2023-05-14T00:56:07.515Z,5.88
2023-05-14T00:57:07.545Z,5.72
2023-05-14T00:58:07.598Z,5.90
2023-05-14T00:59:07.616Z,5.80
2023-05-14T01:00:07.636Z,5.71
2023-05-14T01:01:07.724Z,5.49
2023-05-14T01:02:07.698Z,5.51
2023-05-14T01:03:07.934Z,5.52
2023-05-14T01:04:07.876Z,5.24
2023-05-14T01:05:07.789Z,5.21
2023-05-14T01:06:07.829Z,5.27
2023-05-14T01:07:07.837Z,5.35
2023-05-14T01:08:07.873Z,5.27
2023-05-14T01:09:07.920Z,5.18
2023-05-14T01:10:07.950Z,5.16
2023-05-14T01:11:07.973Z,5.39
2023-05-14T01:12:08.029Z,5.20
2023-05-14T01:13:08.045Z,5.29
2023-05-14T01:14:08.096Z,5.19
2023-05-14T01:15:08.108Z,5.30
2023-05-14T01:16:08.152Z,5.35
2023-05-14T01:17:08.174Z,5.26
2023-05-14T01:18:08.268Z,5.29
2023-05-14T01:19:08.333Z,5.37
2023-05-14T01:20:08.288Z,5.48
2023-05-14T01:21:08.325Z,5.52
2023-05-14T01:22:08.372Z,5.48
2023-05-14T01:23:08.398Z,5.53
2023-05-14T01:24:08.445Z,5.51
2023-05-14T01:25:08.474Z,5.46
2023-05-14T01:26:08.483Z,5.51
2023-05-14T01:27:08.526Z,5.51
2023-05-14T01:28:08.550Z,5.61
2023-05-14T01:29:08.606Z,5.56
2023-05-14T01:30:08.635Z,5.62
2023-05-14T01:31:08.669Z,5.71
2023-05-14T01:32:08.758Z,5.70
2023-05-14T01:33:08.731Z,5.62
2023-05-14T01:34:08.766Z,5.54
2023-05-14T01:35:08.804Z,5.60
2023-05-14T01:36:08.812Z,5.51
2023-05-14T01:37:08.843Z,5.51
2023-05-14T01:38:08.895Z,5.66
2023-05-14T01:39:08.919Z,5.68
2023-05-14T01:40:08.960Z,5.57
2023-05-14T01:41:08.984Z,5.66
2023-05-14T01:42:09.014Z,5.73
2023-05-14T01:43:09.128Z,5.63
2023-05-14T01:44:09.068Z,5.62
2023-05-14T01:45:09.126Z,5.64
2023-05-14T01:46:09.197Z,5.66
2023-05-14T01:47:09.171Z,5.52
2023-05-14T01:48:09.280Z,5.45
2023-05-14T01:49:09.233Z,5.35
2023-05-14T01:50:09.287Z,5.35
2023-05-14T01:51:09.302Z,5.49
2023-05-14T01:52:09.338Z,5.40
2023-05-14T01:53:09.391Z,5.50
2023-05-14T01:54:09.424Z,5.45
2023-05-14T01:55:09.443Z,5.39
2023-05-14T01:56:09.473Z,5.33
2023-05-14T01:57:09.501Z,5.30
2023-05-14T01:58:09.556Z,5.30
2023-05-14T01:59:09.578Z,5.38
2023-05-14T02:00:09.610Z,5.29
2023-05-14T02:01:09.692Z,5.02
2023-05-14T02:02:09.686Z,4.94
2023-05-14T02:03:09.740Z,4.79
2023-05-14T02:04:09.888Z,4.68
2023-05-14T02:05:09.824Z,4.70
2023-05-14T02:06:09.830Z,4.79
2023-05-14T02:07:09.843Z,4.58
2023-05-14T02:08:09.901Z,4.71
2023-05-14T02:09:09.924Z,4.77
2023-05-14T02:10:09.973Z,4.80
2023-05-14T02:11:09.982Z,4.84
2023-05-14T02:12:10.016Z,4.98
2023-05-14T02:13:10.049Z,5.01
2023-05-14T02:14:10.073Z,4.92
2023-05-14T02:15:10.141Z,4.77
2023-05-14T02:16:10.200Z,4.76
2023-05-14T02:17:10.209Z,4.72
2023-05-14T02:18:10.273Z,4.67
2023-05-14T02:19:10.369Z,4.75
2023-05-14T02:20:10.362Z,4.64
2023-05-14T02:21:10.330Z,4.78
2023-05-14T02:22:10.346Z,4.87
2023-05-14T02:23:10.399Z,4.82
2023-05-14T02:24:10.407Z,4.72
2023-05-14T02:25:10.453Z,4.67
2023-05-14T02:26:10.521Z,4.64
2023-05-14T02:27:10.523Z,4.61
2023-05-14T02:28:10.575Z,4.66
2023-05-14T02:29:10.598Z,4.72
2023-05-14T02:30:10.617Z,4.64
2023-05-14T02:31:10.731Z,4.60
2023-05-14T02:32:10.717Z,4.58
2023-05-14T02:33:10.823Z,4.49
2023-05-14T02:34:10.768Z,4.44
2023-05-14T02:35:10.804Z,4.54
2023-05-14T02:36:10.832Z,4.60
2023-05-14T02:37:10.855Z,4.49
2023-05-14T02:38:10.887Z,4.41
2023-05-14T02:39:10.936Z,4.42
2023-05-14T02:40:10.936Z,4.59
2023-05-14T02:41:10.989Z,4.60
2023-05-14T02:42:10.999Z,4.35
2023-05-14T02:43:11.038Z,4.43
2023-05-14T02:44:11.057Z,4.39
2023-05-14T02:45:11.096Z,4.30
2023-05-14T02:46:11.140Z,4.34
2023-05-14T02:47:11.267Z,4.35
2023-05-14T02:48:11.247Z,4.35
2023-05-14T02:49:11.302Z,4.32
2023-05-14T02:50:11.271Z,4.18
2023-05-14T02:51:11.301Z,4.25
2023-05-14T02:52:11.327Z,4.32
2023-05-14T02:53:11.346Z,4.25
2023-05-14T02:54:11.378Z,4.21
2023-05-14T02:55:11.404Z,4.25
2023-05-14T02:56:11.440Z,4.20
2023-05-14T02:57:11.475Z,4.15
2023-05-14T02:58:11.507Z,4.24
2023-05-14T02:59:11.544Z,4.38
2023-05-14T03:00:11.570Z,4.30
2023-05-14T03:01:11.664Z,4.35
2023-05-14T03:02:11.676Z,4.36
2023-05-14T03:03:11.709Z,4.36
2023-05-14T03:04:11.704Z,4.22
2023-05-14T03:05:11.728Z,4.36
2023-05-14T03:06:11.768Z,4.14
2023-05-14T03:07:11.774Z,4.16
2023-05-14T03:08:11.876Z,4.20
2023-05-14T03:09:11.837Z,4.14
2023-05-14T03:10:11.888Z,4.15
2023-05-14T03:11:11.918Z,4.12
2023-05-14T03:12:11.932Z,4.12
2023-05-14T03:13:11.957Z,4.22
2023-05-14T03:14:12.009Z,4.27
2023-05-14T03:15:12.016Z,4.24
2023-05-14T03:16:12.108Z,4.11
2023-05-14T03:17:12.135Z,4.20
2023-05-14T03:18:12.137Z,4.23
2023-05-14T03:19:12.345Z,4.25
2023-05-14T03:20:12.179Z,4.20
2023-05-14T03:21:12.210Z,4.24
2023-05-14T03:22:12.238Z,4.13
2023-05-14T03:23:12.265Z,4.19
2023-05-14T03:24:12.302Z,4.21
2023-05-14T03:25:12.330Z,4.16
2023-05-14T03:26:12.356Z,4.10
2023-05-14T03:27:12.379Z,4.27
2023-05-14T03:28:12.409Z,4.19
2023-05-14T03:29:12.453Z,4.16
2023-05-14T03:30:12.494Z,4.15
2023-05-14T03:31:12.562Z,4.16
2023-05-14T03:32:12.538Z,4.31
2023-05-14T03:33:12.639Z,4.13
2023-05-14T03:34:12.596Z,4.16
2023-05-14T03:35:12.639Z,4.21
2023-05-14T03:36:12.663Z,4.00
2023-05-14T03:37:12.691Z,4.02
2023-05-14T03:38:12.731Z,4.10
2023-05-14T03:39:12.766Z,4.10
2023-05-14T03:40:12.779Z,4.13
2023-05-14T03:41:12.838Z,4.05
2023-05-14T03:42:12.860Z,4.08
2023-05-14T03:43:12.893Z,4.07
2023-05-14T03:44:12.916Z,4.05
2023-05-14T03:45:12.945Z,4.09
2023-05-14T03:46:12.976Z,3.98
2023-05-14T03:47:13.016Z,4.00
2023-05-14T03:48:13.128Z,3.95
2023-05-14T03:49:13.049Z,3.97
2023-05-14T03:50:13.087Z,4.02
2023-05-14T03:51:13.112Z,3.90
2023-05-14T03:52:13.162Z,3.88
2023-05-14T03:53:13.175Z,4.04
2023-05-14T03:54:13.202Z,3.85
2023-05-14T03:55:13.231Z,3.79
2023-05-14T03:56:13.270Z,3.77
2023-05-14T03:57:13.313Z,3.80
2023-05-14T03:58:13.319Z,3.81
2023-05-14T03:59:13.361Z,3.80
2023-05-14T04:00:13.385Z,3.87
2023-05-14T04:01:13.437Z,3.80
2023-05-14T04:02:13.585Z,3.80
2023-05-14T04:03:13.575Z,3.86
2023-05-14T04:04:13.571Z,3.81
2023-05-14T04:05:13.546Z,3.87
2023-05-14T04:06:13.579Z,3.83
2023-05-14T04:07:13.590Z,3.92
2023-05-14T04:08:13.622Z,3.86
2023-05-14T04:09:13.644Z,3.77
2023-05-14T04:10:13.689Z,3.77
2023-05-14T04:11:13.725Z,3.77
2023-05-14T04:12:13.753Z,3.72
2023-05-14T04:13:13.766Z,3.76
2023-05-14T04:14:13.797Z,3.77
2023-05-14T04:15:13.847Z,3.81
2023-05-14T04:16:13.913Z,3.73
2023-05-14T04:17:13.958Z,3.70
2023-05-14T04:18:14.075Z,3.70
2023-05-14T04:19:14.022Z,3.68
2023-05-14T04:20:13.981Z,3.69
2023-05-14T04:21:14.024Z,3.62
2023-05-14T04:22:14.039Z,3.51
2023-05-14T04:23:14.079Z,3.48
2023-05-14T04:24:14.104Z,3.46
2023-05-14T04:25:14.176Z,3.36
2023-05-14T04:26:14.170Z,3.37
2023-05-14T04:27:14.203Z,3.32
2023-05-14T04:28:14.252Z,3.32
2023-05-14T04:29:14.254Z,3.32
2023-05-14T04:30:14.298Z,3.33
2023-05-14T04:31:14.335Z,3.34
2023-05-14T04:32:14.337Z,3.39
2023-05-14T04:33:14.370Z,3.23
2023-05-14T04:34:14.414Z,3.33
2023-05-14T04:35:14.444Z,3.29
2023-05-14T04:36:14.473Z,3.33
2023-05-14T04:37:14.528Z,3.32
2023-05-14T04:38:14.556Z,3.23
2023-05-14T04:39:14.592Z,3.27
2023-05-14T04:40:14.598Z,3.26
2023-05-14T04:41:14.669Z,3.21
2023-05-14T04:42:14.655Z,3.22
2023-05-14T04:43:14.736Z,3.33
2023-05-14T04:44:14.719Z,3.34
2023-05-14T04:45:14.852Z,3.21
2023-05-14T04:46:14.828Z,3.22
2023-05-14T04:47:14.823Z,3.15
2023-05-14T04:48:14.833Z,3.10
2023-05-14T04:49:14.876Z,3.11
2023-05-14T04:50:14.898Z,3.11
2023-05-14T04:51:14.930Z,3.06
2023-05-14T04:52:14.957Z,3.11
2023-05-14T04:53:14.982Z,3.00
2023-05-14T04:54:15.043Z,3.02
2023-05-14T04:55:15.058Z,3.07
2023-05-14T04:56:15.093Z,3.05
2023-05-14T04:57:15.133Z,3.05
2023-05-14T04:58:15.134Z,3.03
2023-05-14T04:59:15.183Z,2.98
2023-05-14T05:00:15.216Z,3.03
2023-05-14T05:01:15.369Z,2.98
2023-05-14T05:02:15.271Z,2.98
2023-05-14T05:03:15.390Z,2.96
2023-05-14T05:04:15.525Z,2.88
2023-05-14T05:05:15.378Z,2.94
2023-05-14T05:06:15.410Z,2.86
2023-05-14T05:07:15.425Z,2.94
2023-05-14T05:08:15.456Z,2.93
2023-05-14T05:09:15.482Z,2.91
2023-05-14T05:10:15.525Z,3.05
2023-05-14T05:11:15.566Z,2.97
2023-05-14T05:12:15.589Z,2.96
2023-05-14T05:13:15.597Z,2.89
2023-05-14T05:14:15.643Z,2.87
2023-05-14T05:15:15.676Z,2.92
2023-05-14T05:16:15.816Z,2.87
2023-05-14T05:17:15.740Z,2.91
2023-05-14T05:18:15.766Z,2.86
2023-05-14T05:19:15.900Z,2.85
2023-05-14T05:20:15.846Z,2.78
2023-05-14T05:21:15.870Z,2.76
2023-05-14T05:22:15.882Z,2.76
2023-05-14T05:23:15.924Z,2.77
2023-05-14T05:24:15.947Z,2.76
2023-05-14T05:25:16.017Z,2.76
2023-05-14T05:26:16.011Z,2.71
2023-05-14T05:27:16.054Z,2.74
2023-05-14T05:28:16.067Z,2.78
2023-05-14T05:29:16.110Z,2.80
2023-05-14T05:30:16.168Z,2.80
2023-05-14T05:31:17.636Z,2.72
2023-05-14T05:32:16.167Z,2.79
2023-05-14T05:33:16.182Z,2.75
2023-05-14T05:34:16.156Z,2.67
2023-05-14T05:35:16.168Z,2.63
2023-05-14T05:36:16.131Z,2.53
2023-05-14T05:37:16.131Z,2.55
2023-05-14T05:38:16.124Z,2.58
2023-05-14T05:39:16.122Z,2.57
2023-05-14T05:40:16.103Z,2.49
2023-05-14T05:41:16.095Z,2.48
2023-05-14T05:42:16.096Z,2.45
2023-05-14T05:43:16.086Z,2.39
2023-05-14T05:44:16.078Z,2.38
2023-05-14T05:45:16.059Z,2.44
2023-05-14T05:46:16.068Z,2.40
2023-05-14T05:47:16.056Z,2.39
2023-05-14T05:48:16.044Z,2.37
2023-05-14T05:49:16.031Z,2.37
2023-05-14T05:50:16.376Z,2.37
2023-05-14T05:51:16.017Z,2.43
2023-05-14T05:52:16.007Z,2.39
2023-05-14T05:53:16.011Z,2.43
2023-05-14T05:54:16.001Z,2.54
2023-05-14T05:55:15.989Z,2.46
2023-05-14T05:56:16.006Z,2.49
2023-05-14T05:57:15.986Z,2.38
2023-05-14T05:58:15.977Z,2.40
2023-05-14T05:59:15.956Z,2.38
2023-05-14T06:00:15.943Z,2.45
2023-05-14T06:01:15.959Z,2.37
2023-05-14T06:02:16.043Z,2.38
2023-05-14T06:03:15.949Z,2.32
2023-05-14T06:04:15.914Z,2.38
2023-05-14T06:05:15.971Z,2.40
2023-05-14T06:06:15.919Z,2.34
2023-05-14T06:07:15.913Z,2.40
2023-05-14T06:08:15.902Z,2.35
2023-05-14T06:09:15.891Z,2.34
2023-05-14T06:10:15.880Z,2.22
2023-05-14T06:11:15.868Z,2.32
2023-05-14T06:12:15.868Z,2.20
2023-05-14T06:13:15.842Z,2.26
2023-05-14T06:14:15.833Z,2.16
2023-05-14T06:15:15.854Z,2.21
2023-05-14T06:16:15.873Z,2.16
2023-05-14T06:17:15.826Z,2.13
2023-05-14T06:18:15.818Z,2.07
2023-05-14T06:19:16.000Z,2.07
2023-05-14T06:20:15.816Z,2.02
2023-05-14T06:21:15.783Z,1.93
2023-05-14T06:22:15.779Z,2.04
2023-05-14T06:23:15.770Z,1.96
2023-05-14T06:24:15.758Z,1.96
2023-05-14T06:25:15.757Z,1.97
2023-05-14T06:26:15.761Z,1.94
2023-05-14T06:27:15.767Z,1.98
2023-05-14T06:28:15.750Z,1.96
2023-05-14T06:29:15.739Z,2.00
2023-05-14T06:30:15.737Z,1.98
2023-05-14T06:31:15.744Z,1.91
2023-05-14T06:32:15.855Z,1.87
2023-05-14T06:33:15.796Z,1.90
2023-05-14T06:34:15.814Z,1.87
2023-05-14T06:35:15.855Z,1.88
2023-05-14T06:36:15.916Z,1.97
2023-05-14T06:37:15.895Z,1.94
2023-05-14T06:38:15.938Z,1.98
2023-05-14T06:39:15.957Z,1.95
2023-05-14T06:40:15.974Z,1.95
2023-05-14T06:41:16.022Z,1.91
2023-05-14T06:42:16.025Z,1.86
2023-05-14T06:43:16.046Z,1.80
2023-05-14T06:44:16.085Z,1.78
2023-05-14T06:45:16.120Z,1.82
2023-05-14T06:46:16.127Z,1.81
2023-05-14T06:47:16.157Z,1.80
2023-05-14T06:48:16.208Z,1.88
2023-05-14T06:49:16.246Z,1.86
2023-05-14T06:50:16.215Z,1.85
2023-05-14T06:51:16.250Z,1.86
2023-05-14T06:52:16.264Z,1.82
2023-05-14T06:53:16.311Z,1.79
2023-05-14T06:54:16.302Z,1.81
2023-05-14T06:55:16.355Z,1.76
2023-05-14T06:56:16.368Z,1.76
2023-05-14T06:57:16.369Z,1.79
2023-05-14T06:58:16.371Z,1.77
2023-05-14T06:59:16.385Z,1.76
2023-05-14T07:00:16.388Z,1.78
2023-05-14T07:01:16.522Z,1.71
2023-05-14T07:02:16.416Z,1.74
2023-05-14T07:03:16.453Z,1.76
2023-05-14T07:04:16.506Z,1.72
2023-05-14T07:05:16.497Z,1.76
2023-05-14T07:06:16.459Z,1.74
2023-05-14T07:07:16.493Z,1.72
2023-05-14T07:08:16.488Z,1.79
2023-05-14T07:09:16.524Z,1.75
2023-05-14T07:10:16.524Z,1.77
2023-05-14T07:11:16.540Z,1.80
2023-05-14T07:12:16.531Z,1.78
2023-05-14T07:13:16.537Z,1.82
2023-05-14T07:14:16.564Z,1.79
2023-05-14T07:15:16.591Z,1.78
2023-05-14T07:16:16.580Z,1.81
2023-05-14T07:17:16.728Z,1.80
2023-05-14T07:18:16.668Z,1.85
2023-05-14T07:19:16.666Z,1.84
2023-05-14T07:20:16.573Z,1.81
2023-05-14T07:21:16.586Z,1.82
2023-05-14T07:22:16.582Z,1.88
2023-05-14T07:24:16.607Z,1.81
2023-05-14T07:25:16.594Z,1.80
2023-05-14T07:26:16.608Z,1.80
2023-05-14T07:27:16.608Z,1.79
2023-05-14T07:28:16.584Z,1.83
2023-05-14T07:29:16.581Z,1.75
2023-05-14T07:30:16.597Z,1.73
2023-05-14T07:31:16.684Z,1.72
2023-05-14T07:32:16.615Z,1.68
2023-05-14T07:33:16.610Z,1.75
2023-05-14T07:34:16.627Z,1.67
2023-05-14T07:35:16.635Z,1.64
2023-05-14T07:36:16.627Z,1.67
2023-05-14T07:37:16.669Z,1.56
2023-05-14T07:38:16.656Z,1.60
2023-05-14T07:39:16.683Z,1.56
2023-05-14T07:40:16.690Z,1.50
2023-05-14T07:41:16.716Z,1.52
2023-05-14T07:42:27.950Z,1.48
2023-05-14T07:43:17.725Z,1.48
2023-05-14T07:44:16.721Z,1.49
2023-05-14T07:45:16.694Z,1.45
2023-05-14T07:46:16.707Z,1.47
2023-05-14T07:47:16.761Z,1.49
2023-05-14T07:48:16.710Z,1.42
2023-05-14T07:49:16.668Z,1.37
2023-05-14T07:50:16.710Z,1.36
2023-05-14T07:51:16.688Z,1.38
2023-05-14T07:52:16.705Z,1.27
2023-05-14T07:53:16.768Z,1.38
2023-05-14T07:54:16.784Z,1.34
2023-05-14T07:55:16.882Z,1.34
2023-05-14T07:56:16.969Z,1.29
2023-05-14T07:57:16.982Z,1.34
2023-05-14T07:58:17.022Z,1.34
2023-05-14T07:59:17.076Z,1.36
2023-05-14T08:00:17.134Z,1.34
2023-05-14T08:01:17.148Z,1.36
2023-05-14T08:02:17.437Z,1.33
2023-05-14T08:03:17.334Z,1.33
2023-05-14T08:04:17.336Z,1.28
2023-05-14T08:05:17.360Z,1.31
2023-05-14T08:06:17.469Z,1.22
2023-05-14T08:07:17.513Z,1.21
2023-05-14T08:08:17.551Z,1.24
2023-05-14T08:09:17.610Z,1.24
2023-05-14T08:10:17.665Z,1.13
2023-05-14T08:11:17.781Z,1.08
2023-05-14T08:12:17.768Z,1.12
2023-05-14T08:13:17.827Z,1.09
2023-05-14T08:14:17.901Z,1.16
2023-05-14T08:15:17.965Z,1.08
2023-05-14T08:16:18.059Z,1.09
2023-05-14T08:17:18.176Z,1.06
2023-05-14T08:18:18.130Z,1.09
2023-05-14T08:19:18.177Z,1.11
2023-05-14T08:20:18.228Z,1.15
2023-05-14T08:21:18.278Z,1.04
2023-05-14T08:22:18.316Z,1.04
2023-05-14T08:23:18.365Z,1.05
2023-05-14T08:24:18.396Z,1.11
2023-05-14T08:25:18.435Z,0.94
2023-05-14T08:26:18.481Z,1.00
2023-05-14T08:27:18.516Z,1.06
2023-05-14T08:28:18.528Z,1.14
2023-05-14T08:29:18.577Z,1.13
2023-05-14T08:30:18.615Z,1.15
2023-05-14T08:31:18.704Z,1.10
2023-05-14T08:32:23.472Z,1.17
2023-05-14T08:33:19.643Z,1.17
2023-05-14T08:34:18.668Z,1.19
2023-05-14T08:35:18.641Z,1.22
2023-05-14T08:36:18.622Z,1.20
2023-05-14T08:37:18.615Z,1.34
2023-05-14T08:38:18.623Z,1.36
2023-05-14T08:39:18.607Z,1.30
2023-05-14T08:40:18.591Z,1.21
2023-05-14T08:41:18.606Z,1.10
2023-05-14T08:42:18.603Z,1.32
2023-05-14T08:43:18.593Z,1.27
2023-05-14T08:44:18.580Z,1.04
2023-05-14T08:45:18.578Z,1.01
2023-05-14T08:46:18.577Z,1.10
2023-05-14T08:47:18.558Z,0.86
2023-05-14T08:48:18.624Z,1.09
2023-05-14T08:49:18.542Z,1.09
2023-05-14T08:50:19.914Z,1.00
2023-05-14T08:51:18.517Z,1.00
2023-05-14T08:52:18.524Z,0.89
2023-05-14T08:53:18.512Z,0.78
2023-05-14T08:54:18.526Z,0.87
2023-05-14T08:55:18.490Z,0.76
2023-05-14T08:56:18.496Z,0.97
2023-05-14T08:57:18.495Z,0.98
2023-05-14T08:58:18.487Z,0.95
2023-05-14T08:59:18.458Z,0.80
2023-05-14T09:00:18.466Z,0.93
2023-05-14T09:01:18.566Z,0.91
2023-05-14T09:02:18.454Z,0.96
2023-05-14T09:03:18.492Z,1.05
2023-05-14T09:04:18.562Z,1.30
2023-05-14T09:05:18.432Z,1.37
2023-05-14T09:06:18.405Z,1.28
2023-05-14T09:07:18.421Z,1.34
2023-05-14T09:08:18.392Z,1.54
2023-05-14T09:09:18.389Z,1.54
2023-05-14T09:10:18.397Z,1.66
2023-05-14T09:11:18.393Z,1.48
2023-05-14T09:12:18.377Z,1.59
2023-05-14T09:13:18.368Z,1.36
2023-05-14T09:14:18.370Z,1.46
2023-05-14T09:15:18.372Z,1.60
2023-05-14T09:16:18.410Z,1.65
2023-05-14T09:17:18.358Z,1.55
2023-05-14T09:18:18.354Z,1.56
2023-05-14T09:19:18.396Z,1.65
2023-05-14T09:20:18.329Z,1.35
2023-05-14T09:21:18.307Z,1.31
2023-05-14T09:22:18.299Z,1.16
2023-05-14T09:23:18.298Z,1.43
2023-05-14T09:24:18.300Z,1.60
2023-05-14T09:25:18.274Z,1.60
2023-05-14T09:26:18.269Z,1.59
2023-05-14T09:27:18.284Z,1.55
2023-05-14T09:28:18.276Z,1.36
2023-05-14T09:29:18.266Z,1.56
2023-05-14T09:30:18.260Z,1.55
2023-05-14T09:31:18.252Z,1.56
2023-05-14T09:32:18.238Z,1.45
2023-05-14T09:33:18.239Z,1.21
2023-05-14T09:34:18.224Z,1.41
2023-05-14T09:35:18.223Z,1.31
2023-05-14T09:36:18.211Z,1.15
2023-05-14T09:37:18.206Z,0.78
2023-05-14T09:38:18.197Z,0.63
2023-05-14T09:39:18.187Z,0.64
2023-05-14T09:40:18.192Z,0.77
2023-05-14T09:41:18.154Z,0.64
2023-05-14T09:42:18.222Z,0.67
2023-05-14T09:43:18.277Z,0.63
2023-05-14T09:44:18.339Z,0.59
2023-05-14T09:45:18.422Z,0.64
2023-05-14T09:46:18.488Z,0.55
2023-05-14T09:47:18.566Z,0.61
2023-05-14T09:48:18.623Z,0.58
2023-05-14T09:49:18.617Z,0.61
2023-05-14T09:50:18.710Z,0.71
2023-05-14T09:51:18.781Z,0.68
2023-05-14T09:52:18.822Z,0.60
2023-05-14T09:53:18.884Z,0.67
2023-05-14T09:54:18.921Z,0.69
2023-05-14T09:55:18.988Z,0.75
2023-05-14T09:56:19.076Z,0.70
2023-05-14T09:57:19.139Z,0.72
2023-05-14T09:58:19.181Z,0.83
2023-05-14T09:59:19.259Z,0.74
2023-05-14T10:00:19.313Z,0.72
2023-05-14T10:01:19.388Z,0.58
2023-05-14T10:02:19.404Z,0.64
2023-05-14T10:03:20.166Z,0.66
2023-05-14T10:04:19.592Z,0.65
2023-05-14T10:05:19.574Z,0.78
2023-05-14T10:06:19.648Z,0.67
2023-05-14T10:07:19.700Z,0.64
2023-05-14T10:08:19.757Z,0.74
2023-05-14T10:09:19.838Z,0.66
2023-05-14T10:10:19.940Z,0.61
2023-05-14T10:11:19.919Z,0.54
2023-05-14T10:12:20.000Z,0.53
2023-05-14T10:13:20.049Z,0.53
2023-05-14T10:14:20.100Z,0.53
2023-05-14T10:15:20.151Z,0.50
2023-05-14T10:16:20.294Z,0.55
2023-05-14T10:17:20.278Z,0.57
2023-05-14T10:18:20.313Z,0.58
2023-05-14T10:19:20.513Z,0.51
2023-05-14T10:20:20.444Z,0.55
2023-05-14T10:21:20.478Z,0.64
2023-05-14T10:22:20.538Z,0.65
2023-05-14T10:23:20.598Z,0.64
2023-05-14T10:24:20.642Z,0.55
2023-05-14T10:25:20.703Z,0.55
2023-05-14T10:26:23.106Z,0.56
2023-05-14T10:27:20.755Z,0.57
2023-05-14T10:28:20.756Z,0.52
2023-05-14T10:29:20.759Z,0.57
2023-05-14T10:30:20.729Z,0.51
2023-05-14T10:31:20.742Z,0.55
2023-05-14T10:32:20.758Z,0.58
2023-05-14T10:33:20.721Z,0.53
2023-05-14T10:34:20.699Z,0.50
2023-05-14T10:35:20.906Z,0.53
2023-05-14T10:36:20.710Z,0.56
2023-05-14T10:37:20.708Z,0.56
2023-05-14T10:38:20.686Z,0.54
2023-05-14T10:39:20.784Z,0.65
2023-05-14T10:40:20.671Z,0.60
2023-05-14T10:41:20.652Z,0.68
2023-05-14T10:42:20.653Z,0.58
2023-05-14T10:43:20.648Z,0.63
2023-05-14T10:44:20.644Z,0.73
2023-05-14T10:45:20.635Z,0.68
2023-05-14T10:46:20.674Z,0.70
2023-05-14T10:47:20.619Z,0.63
2023-05-14T10:48:20.643Z,0.63
2023-05-14T10:49:28.829Z,0.61
2023-05-14T10:50:21.732Z,0.61
2023-05-14T10:51:20.675Z,0.61
2023-05-14T10:52:20.618Z,0.61
2023-05-14T10:53:20.569Z,0.65
2023-05-14T10:54:20.564Z,0.63
2023-05-14T10:55:20.575Z,0.58
2023-05-14T10:56:20.553Z,0.61
2023-05-14T10:57:20.584Z,0.66
2023-05-14T10:58:20.588Z,0.58
2023-05-14T10:59:20.649Z,0.55
2023-05-14T11:00:20.714Z,0.58
2023-05-14T11:01:20.813Z,0.56
2023-05-14T11:02:20.857Z,0.52
2023-05-14T11:03:20.935Z,0.58
2023-05-14T11:04:20.941Z,0.53
2023-05-14T11:05:20.986Z,0.53
2023-05-14T11:06:21.043Z,0.51
2023-05-14T11:07:21.082Z,0.52
2023-05-14T11:08:22.502Z,0.59
2023-05-14T11:09:21.104Z,0.57
2023-05-14T11:10:21.186Z,0.54
2023-05-14T11:11:21.104Z,0.59
2023-05-14T11:12:21.085Z,0.57
2023-05-14T11:13:21.122Z,0.55
2023-05-14T11:14:21.063Z,0.56
2023-05-14T11:15:21.071Z,0.57
2023-05-14T11:16:23.550Z,0.61
2023-05-14T11:17:21.080Z,0.56
2023-05-14T11:18:21.039Z,0.58
2023-05-14T11:19:21.052Z,0.52
2023-05-14T11:20:21.066Z,0.54
2023-05-14T11:21:21.039Z,0.55
2023-05-14T11:22:21.014Z,0.51
2023-05-14T11:23:21.064Z,0.52
2023-05-14T11:24:21.010Z,0.55
2023-05-14T11:25:20.994Z,0.56
2023-05-14T11:26:21.904Z,0.61
2023-05-14T11:27:20.973Z,0.55
2023-05-14T11:28:20.993Z,0.56
2023-05-14T11:29:20.959Z,0.55
2023-05-14T11:30:21.040Z,0.52
2023-05-14T11:31:20.993Z,0.52
2023-05-14T11:32:21.141Z,0.54
2023-05-14T11:33:20.947Z,0.50
2023-05-14T11:34:20.946Z,0.52
2023-05-14T11:35:20.943Z,0.54
2023-05-14T11:36:20.926Z,0.56
2023-05-14T11:37:20.910Z,0.59
2023-05-14T11:38:20.903Z,0.56
2023-05-14T11:39:20.889Z,0.52
2023-05-14T11:40:20.891Z,0.53
2023-05-14T11:41:20.969Z,0.52
2023-05-14T11:42:20.881Z,0.52
2023-05-14T11:43:20.882Z,0.56
2023-05-14T11:44:20.869Z,0.51
2023-05-14T11:45:20.863Z,0.53
2023-05-14T11:46:20.890Z,0.52
2023-05-14T11:47:20.844Z,0.51
2023-05-14T11:48:20.841Z,0.52
2023-05-14T11:49:20.850Z,0.50
2023-05-14T11:50:20.809Z,0.51
2023-05-14T11:51:20.811Z,0.50
2023-05-14T11:52:20.807Z,0.53
2023-05-14T11:53:20.808Z,0.53
2023-05-14T11:54:20.785Z,0.54
2023-05-14T11:55:20.798Z,0.53
2023-05-14T11:56:20.766Z,0.50
2023-05-14T11:57:20.759Z,0.55
2023-05-14T11:58:20.770Z,0.55
2023-05-14T11:59:20.741Z,0.59
2023-05-14T12:00:20.744Z,0.56
2023-05-14T12:01:20.734Z,0.55
2023-05-14T12:02:20.766Z,0.58
2023-05-14T12:03:20.947Z,0.61
2023-05-14T12:04:20.781Z,0.61
2023-05-14T12:05:20.714Z,0.62
2023-05-14T12:06:20.690Z,0.66
2023-05-14T12:07:20.692Z,0.70
2023-05-14T12:08:20.691Z,0.76
2023-05-14T12:09:20.677Z,0.76
2023-05-14T12:10:20.682Z,0.79
2023-05-14T12:11:20.690Z,0.83
2023-05-14T12:12:20.668Z,0.83
2023-05-14T12:13:20.649Z,0.83
2023-05-14T12:14:20.649Z,0.89
2023-05-14T12:15:20.646Z,0.88
2023-05-14T12:16:20.687Z,0.86
2023-05-14T12:17:20.729Z,0.88
2023-05-14T12:18:24.621Z,0.85
2023-05-14T12:19:20.675Z,0.85
2023-05-14T12:20:20.645Z,0.85
2023-05-14T12:21:20.613Z,0.83
2023-05-14T12:22:20.601Z,0.83
2023-05-14T12:23:20.610Z,0.84
2023-05-14T12:24:20.577Z,0.81
2023-05-14T12:25:20.593Z,0.88
2023-05-14T12:26:20.579Z,0.85
2023-05-14T12:27:20.551Z,0.80
2023-05-14T12:28:20.548Z,0.79
2023-05-14T12:29:20.579Z,0.72
2023-05-14T12:30:22.138Z,0.74
2023-05-14T12:31:20.587Z,0.70
2023-05-14T12:32:20.516Z,0.66
2023-05-14T12:33:20.516Z,0.65
2023-05-14T12:34:20.511Z,0.66
2023-05-14T12:35:20.511Z,0.63
2023-05-14T12:36:22.176Z,0.61
2023-05-14T12:37:20.485Z,0.67
2023-05-14T12:38:20.486Z,0.70
2023-05-14T12:39:20.565Z,0.70
2023-05-14T12:40:20.478Z,0.69
2023-05-14T12:41:20.469Z,0.76
2023-05-14T12:42:20.452Z,0.74
2023-05-14T12:43:20.446Z,0.80
2023-05-14T12:44:20.541Z,0.80
2023-05-14T12:45:20.428Z,0.81
2023-05-14T12:46:20.485Z,0.79
2023-05-14T12:47:20.567Z,0.80
2023-05-14T12:48:20.433Z,0.79
2023-05-14T12:49:20.411Z,0.79
2023-05-14T12:50:20.396Z,0.82
2023-05-14T12:51:20.390Z,0.85
2023-05-14T12:52:33.344Z,0.82
2023-05-14T12:53:21.391Z,0.82
2023-05-14T12:54:20.395Z,0.81
2023-05-14T12:55:20.431Z,0.83
2023-05-14T12:56:20.360Z,0.82
2023-05-14T12:57:20.366Z,0.85
2023-05-14T12:58:20.359Z,0.82
2023-05-14T12:59:20.341Z,0.87
2023-05-14T13:00:20.336Z,0.81
2023-05-14T13:01:20.373Z,0.80
2023-05-14T13:02:20.334Z,0.79
2023-05-14T13:03:20.415Z,0.77
2023-05-14T13:04:20.363Z,0.75
2023-05-14T13:05:20.305Z,0.73
2023-05-14T13:06:20.291Z,0.70
2023-05-14T13:07:20.282Z,0.72
2023-05-14T13:08:20.296Z,0.73
2023-05-14T13:09:20.282Z,0.71
2023-05-14T13:10:20.281Z,0.68
2023-05-14T13:11:20.290Z,0.72
2023-05-14T13:12:20.247Z,0.71
2023-05-14T13:13:20.258Z,0.70
2023-05-14T13:14:20.371Z,0.68
2023-05-14T13:15:20.241Z,0.70
2023-05-14T13:16:20.246Z,0.70
2023-05-14T13:17:20.281Z,0.71
2023-05-14T13:18:20.221Z,0.74
2023-05-14T13:19:20.248Z,0.72